LKPR/PRG METAR and TAF weather

Enter ICAO airport designator
Station Type Date Time Source
LKPR METAR 2019/07/18 11:00 UTC NOAA

LKPR 181100Z VRB03KT CAVOK 24/08 Q1013 NOSIG


Station Type Date Time Source
LKPR Decoded METAR 2019/07/18 11:00 UTC NOAA

Praha / Ruzyne, Czech Republic (LKPR) 50-06N 014-15E 365M
Jul 18, 2019 - 07:00 AM EDT / 2019.07.18 1100 UTC
Wind: Variable at 3 MPH (3 KT):0
Visibility: greater than 7 mile(s):0
Temperature: 75 F (24 C)
Dew Point: 46 F (8 C)
Relative Humidity: 35%
Pressure (altimeter): 29.91 in. Hg (1013 hPa)
ob: LKPR 181100Z VRB03KT CAVOK 24/08 Q1013 NOSIG
cycle: 11

Station Type Date Time Source
LKPR TAF 2019/07/18 12:06 UTC NOAA

TAF LKPR 181100Z 1812/1918 06005KT CAVOK
TEMPO 1812/1818 -SHRA SCT045TCU
BECMG 1821/1900 25006KT
TEMPO 1904/1909 -RA BKN035
BECMG 1907/1909 03005KT
TEMPO 1909/1918 7000 SHRA SCT045CB PROB40
TEMPO 1914/1918 4000 TSRA SCT030CB

Example: see airport list